Time;durP1;ratioP1;P1;durP2;ratioP2;P2;SDS_P1;SDS_P2;PMS_P1;PMS_P2;Temp;Humidity;BMP_temperature;BMP_pressure;BME280_temperature;BME280_humidity;BME280_pressure;Samples;Min_cycle;Max_cycle;Signal;HPM_P1;HPM_P2
2021/04/07 00:02:24;;;;;;;20.88;2.30;;;1.80;99.90;;;;;;5031607;28;20022;-75
2021/04/07 00:04:59;;;;;;;21.98;2.92;;;1.90;99.90;;;;;;5029680;28;20101;-75
2021/04/07 00:07:25;;;;;;;22.33;4.15;;;1.90;99.90;;;;;;5030884;28;20033;-75
2021/04/07 00:09:51;;;;;;;10.57;2.30;;;1.90;99.90;;;;;;5031469;28;20025;-75
2021/04/07 00:12:17;;;;;;;34.00;3.05;;;1.80;99.90;;;;;;5031457;28;20111;-75
2021/04/07 00:14:42;;;;;;;9.13;2.13;;;1.80;99.90;;;;;;5030764;28;20490;-76
2021/04/07 00:17:08;;;;;;;18.10;2.92;;;1.70;99.90;;;;;;5029926;28;20108;-75
2021/04/07 00:19:34;;;;;;;14.43;2.50;;;1.70;99.90;;;;;;5031250;28;20382;-76
2021/04/07 00:21:59;;;;;;;20.40;2.47;;;1.50;99.90;;;;;;5032083;28;20109;-75
2021/04/07 00:24:25;;;;;;;24.52;2.65;;;1.40;99.90;;;;;;5034886;28;20501;-76
2021/04/07 00:26:50;;;;;;;14.25;2.22;;;1.30;99.90;;;;;;5035310;28;20021;-76
2021/04/07 00:29:16;;;;;;;22.58;2.47;;;1.30;99.90;;;;;;5033719;28;20075;-76
2021/04/07 00:31:41;;;;;;;16.13;2.40;;;1.40;99.90;;;;;;5035231;28;20029;-76
2021/04/07 00:34:07;;;;;;;14.63;2.05;;;1.50;99.90;;;;;;5034611;28;20033;-76
2021/04/07 00:36:32;;;;;;;24.58;4.20;;;1.50;99.90;;;;;;5034964;28;20067;-76
2021/04/07 00:38:58;;;;;;;17.13;2.20;;;1.40;99.90;;;;;;5035139;28;20032;-76
2021/04/07 00:41:23;;;;;;;20.60;2.47;;;1.40;99.90;;;;;;5034759;28;20033;-76
2021/04/07 00:43:49;;;;;;;22.33;2.90;;;1.40;99.90;;;;;;5034434;28;20049;-76
2021/04/07 00:46:14;;;;;;;36.00;2.97;;;1.40;99.90;;;;;;5033821;28;20052;-76
2021/04/07 00:48:40;;;;;;;31.42;3.92;;;1.40;99.90;;;;;;5034496;28;20041;-75
2021/04/07 00:51:06;;;;;;;31.15;3.03;;;1.40;99.90;;;;;;5015168;28;20113;-76
2021/04/07 00:53:32;;;;;;;29.95;3.58;;;1.40;99.90;;;;;;5032900;28;20032;-75
2021/04/07 00:55:57;;;;;;;29.83;2.95;;;1.40;99.90;;;;;;5032823;28;20456;-75
2021/04/07 00:58:23;;;;;;;17.13;3.00;;;1.50;99.90;;;;;;5032413;28;20048;-75
2021/04/07 01:00:49;;;;;;;22.45;2.92;;;1.40;99.90;;;;;;5034707;28;20481;-75
2021/04/07 01:03:15;;;;;;;21.88;2.22;;;1.40;99.90;;;;;;5034739;28;20040;-75
2021/04/07 01:05:41;;;;;;;22.23;2.20;;;1.40;99.90;;;;;;5033807;28;20029;-75
2021/04/07 01:08:07;;;;;;;33.42;4.90;;;1.30;99.90;;;;;;5033006;28;20112;-76
2021/04/07 01:10:33;;;;;;;26.02;7.03;;;1.30;99.90;;;;;;5033098;28;20061;-76
2021/04/07 01:12:58;;;;;;;35.63;11.13;;;1.30;99.90;;;;;;5034360;28;20118;-76
2021/04/07 01:15:25;;;;;;;34.58;8.52;;;1.30;99.90;;;;;;5033857;28;20028;-75
2021/04/07 01:17:50;;;;;;;37.00;8.85;;;1.30;99.90;;;;;;5034225;28;20025;-75
2021/04/07 01:20:19;;;;;;;26.15;3.25;;;1.30;99.90;;;;;;5032801;28;20497;-75
2021/04/07 01:22:52;;;;;;;28.88;2.92;;;1.40;99.90;;;;;;5034084;28;20629;-75
2021/04/07 01:25:18;;;;;;;21.15;3.90;;;1.50;99.90;;;;;;5033616;28;20115;-76
2021/04/07 01:27:44;;;;;;;20.98;3.45;;;1.50;99.90;;;;;;5032465;28;20113;-75
2021/04/07 01:30:14;;;;;;;19.17;2.90;;;1.50;99.90;;;;;;5033756;28;20056;-76
2021/04/07 01:32:40;;;;;;;21.85;2.90;;;1.40;99.90;;;;;;5032659;28;20029;-76
2021/04/07 01:35:10;;;;;;;25.35;4.13;;;1.40;99.90;;;;;;5033225;28;20052;-76
2021/04/07 01:37:37;;;;;;;47.53;4.18;;;1.40;99.90;;;;;;5033678;28;20505;-75
2021/04/07 01:40:07;;;;;;;25.45;3.20;;;1.40;99.90;;;;;;5033920;28;20504;-75
2021/04/07 01:42:32;;;;;;;31.45;3.28;;;1.40;99.90;;;;;;5033916;28;20493;-75
2021/04/07 01:45:01;;;;;;;22.33;3.47;;;1.30;99.90;;;;;;5032063;28;20037;-75
2021/04/07 01:47:28;;;;;;;18.23;2.83;;;1.30;99.90;;;;;;5033332;28;20029;-76
2021/04/07 01:49:54;;;;;;;29.48;3.80;;;1.20;99.90;;;;;;5033601;28;20112;-76
2021/04/07 01:52:19;;;;;;;17.35;2.47;;;1.30;99.90;;;;;;5033206;28;20041;-76
2021/04/07 01:54:45;;;;;;;20.00;3.90;;;1.30;99.90;;;;;;5032957;28;20030;-76
2021/04/07 01:57:10;;;;;;;32.72;3.47;;;1.30;99.90;;;;;;5033424;28;20028;-76
2021/04/07 01:59:36;;;;;;;35.60;4.20;;;1.20;99.90;;;;;;5033270;28;20041;-76
2021/04/07 02:02:02;;;;;;;21.27;3.22;;;1.10;99.90;;;;;;5032362;28;20032;-75
2021/04/07 02:04:28;;;;;;;30.38;3.25;;;1.10;99.90;;;;;;5032993;28;20563;-76
2021/04/07 02:06:54;;;;;;;40.60;4.53;;;1.00;99.90;;;;;;5032891;28;20092;-75
2021/04/07 02:09:20;;;;;;;27.20;3.35;;;1.00;99.90;;;;;;5032289;28;20021;-76
2021/04/07 02:11:47;;;;;;;24.35;3.85;;;0.90;99.90;;;;;;5033503;28;20095;-76
2021/04/07 02:14:17;;;;;;;11.65;2.60;;;0.80;99.90;;;;;;5032427;28;20033;-76
2021/04/07 02:17:09;;;;;;;31.23;3.80;;;0.80;99.90;;;;;;5031908;28;20028;-76
2021/04/07 02:19:36;;;;;;;28.20;3.80;;;0.80;99.90;;;;;;5010977;28;20451;-76
2021/04/07 02:22:12;;;;;;;16.35;2.10;;;0.80;99.90;;;;;;5017227;28;20124;-75
2021/04/07 02:24:39;;;;;;;25.17;2.20;;;0.90;99.90;;;;;;5032552;28;20033;-75
2021/04/07 02:27:13;;;;;;;23.80;3.08;;;1.00;99.90;;;;;;5032926;28;20066;-76
2021/04/07 02:29:40;;;;;;;39.30;3.50;;;1.20;99.90;;;;;;5012986;28;20030;-76
2021/04/07 02:32:06;;;;;;;21.88;2.47;;;1.40;99.90;;;;;;5013334;28;20543;-75
2021/04/07 02:34:32;;;;;;;18.27;2.50;;;1.60;99.90;;;;;;5012612;28;20026;-75
2021/04/07 02:36:58;;;;;;;21.75;3.47;;;1.70;99.90;;;;;;5017739;28;20033;-75
2021/04/07 02:39:24;;;;;;;21.80;3.25;;;1.70;99.90;;;;;;5032860;28;20021;-75
2021/04/07 02:41:49;;;;;;;12.18;2.42;;;1.70;99.90;;;;;;5032895;28;20543;-75
2021/04/07 02:44:15;;;;;;;20.90;2.33;;;1.80;99.90;;;;;;5031346;28;20104;-76
2021/04/07 02:46:41;;;;;;;17.08;1.77;;;1.80;99.90;;;;;;5032645;28;20057;-75
2021/04/07 02:49:06;;;;;;;20.63;3.38;;;1.80;99.90;;;;;;5032420;28;20033;-75
2021/04/07 02:51:32;;;;;;;19.02;2.65;;;1.80;99.90;;;;;;5031036;28;20083;-75
2021/04/07 02:53:57;;;;;;;17.58;2.67;;;1.90;99.90;;;;;;5031978;28;20409;-76
2021/04/07 02:56:23;;;;;;;19.92;2.55;;;1.70;99.90;;;;;;5032572;28;20087;-76
2021/04/07 02:58:49;;;;;;;17.58;1.98;;;1.70;99.90;;;;;;5031228;28;20108;-75
2021/04/07 03:01:14;;;;;;;20.73;2.63;;;1.70;99.90;;;;;;5031541;28;20037;-76
2021/04/07 03:03:40;;;;;;;16.13;2.30;;;1.60;99.90;;;;;;5030769;28;20037;-75
2021/04/07 03:06:05;;;;;;;22.35;5.63;;;1.60;99.90;;;;;;5032252;28;20397;-76
2021/04/07 03:08:31;;;;;;;21.08;2.95;;;1.70;99.90;;;;;;5031975;28;20509;-75
2021/04/07 03:10:56;;;;;;;20.05;2.47;;;1.60;99.90;;;;;;5032409;28;20103;-76
2021/04/07 03:13:22;;;;;;;21.25;3.15;;;1.50;99.90;;;;;;5032256;28;20442;-75
2021/04/07 03:15:48;;;;;;;13.13;3.63;;;1.40;99.90;;;;;;5031595;28;20030;-76
2021/04/07 03:18:13;;;;;;;18.40;2.70;;;1.30;99.90;;;;;;5031902;28;20375;-75
2021/04/07 03:20:39;;;;;;;10.60;2.28;;;1.20;99.90;;;;;;5030509;28;20025;-75
2021/04/07 03:23:04;;;;;;;20.92;1.88;;;1.10;99.90;;;;;;5031839;28;20033;-76
2021/04/07 03:25:30;;;;;;;15.23;2.35;;;0.90;99.90;;;;;;5031517;28;20416;-76
2021/04/07 03:27:55;;;;;;;17.60;1.98;;;0.90;99.90;;;;;;5030455;28;20064;-75
2021/04/07 03:30:21;;;;;;;22.05;2.45;;;0.90;99.90;;;;;;5031917;28;20040;-75
2021/04/07 03:32:47;;;;;;;28.73;2.13;;;1.00;99.90;;;;;;5032040;28;20029;-75
2021/04/07 03:35:12;;;;;;;23.58;2.22;;;1.00;99.90;;;;;;5031247;28;20048;-75
2021/04/07 03:37:38;;;;;;;22.85;2.67;;;1.00;99.90;;;;;;5031383;28;20038;-75
2021/04/07 03:40:04;;;;;;;19.58;2.10;;;1.10;99.90;;;;;;5031818;28;20029;-75
2021/04/07 03:42:30;;;;;;;11.40;2.40;;;1.10;99.90;;;;;;5031657;28;20032;-75
2021/04/07 03:44:55;;;;;;;19.88;1.63;;;1.10;99.90;;;;;;5031178;28;20108;-75
2021/04/07 03:47:21;;;;;;;13.98;2.92;;;1.10;99.90;;;;;;5031452;28;20039;-75
2021/04/07 03:49:46;;;;;;;19.17;2.08;;;1.10;99.90;;;;;;5031472;28;20052;-76
2021/04/07 03:52:12;;;;;;;10.02;1.92;;;1.10;99.90;;;;;;5030801;28;20494;-76
2021/04/07 03:54:37;;;;;;;13.43;1.80;;;1.10;99.90;;;;;;5030848;28;20040;-75
2021/04/07 03:57:03;;;;;;;17.45;1.98;;;1.00;99.90;;;;;;5030345;28;20056;-75
2021/04/07 03:59:29;;;;;;;17.33;1.83;;;0.90;99.90;;;;;;5031125;28;20033;-75
2021/04/07 04:01:55;;;;;;;17.30;1.85;;;1.00;99.90;;;;;;5031646;28;20115;-75
2021/04/07 04:04:20;;;;;;;18.83;1.80;;;1.00;99.90;;;;;;5029709;28;20482;-75
2021/04/07 04:06:48;;;;;;;15.80;2.17;;;1.10;99.90;;;;;;5029862;28;20030;-76
2021/04/07 04:09:14;;;;;;;11.05;1.42;;;1.00;99.90;;;;;;5031487;28;20445;-75
2021/04/07 04:11:40;;;;;;;8.88;1.83;;;1.00;99.90;;;;;;5030289;28;20108;-76
2021/04/07 04:14:06;;;;;;;26.08;2.55;;;1.10;99.90;;;;;;5030816;28;20029;-76
2021/04/07 04:16:31;;;;;;;11.00;2.35;;;1.00;99.90;;;;;;5030515;28;20064;-76
2021/04/07 04:18:57;;;;;;;21.13;2.22;;;1.10;99.90;;;;;;5029457;28;20029;-76
2021/04/07 04:21:23;;;;;;;10.75;2.40;;;1.10;99.90;;;;;;5031156;28;20029;-76
2021/04/07 04:23:48;;;;;;;14.35;1.85;;;1.10;99.90;;;;;;5030628;28;20029;-76
2021/04/07 04:26:14;;;;;;;12.48;2.17;;;1.00;99.90;;;;;;5030153;28;20167;-76
2021/04/07 04:28:39;;;;;;;13.55;1.70;;;0.90;99.90;;;;;;5031052;28;20057;-76
2021/04/07 04:31:05;;;;;;;15.70;1.73;;;0.80;99.90;;;;;;5030940;28;20060;-76
2021/04/07 04:33:30;;;;;;;24.17;3.47;;;0.70;99.90;;;;;;5030017;28;20029;-75
2021/04/07 04:35:57;;;;;;;16.75;1.85;;;0.70;99.90;;;;;;5030634;28;20079;-75
2021/04/07 04:38:26;;;;;;;29.65;2.28;;;0.70;99.90;;;;;;5029531;28;20535;-76
2021/04/07 04:40:52;;;;;;;10.45;1.70;;;0.80;99.90;;;;;;5011387;28;20548;-76
2021/04/07 04:43:19;;;;;;;19.38;1.83;;;0.90;99.90;;;;;;5010237;28;20037;-76
2021/04/07 04:45:44;;;;;;;13.55;1.50;;;1.00;99.90;;;;;;5010859;28;20065;-76
2021/04/07 04:48:10;;;;;;;13.68;1.17;;;1.20;99.90;;;;;;5023083;28;20501;-75
2021/04/07 04:50:35;;;;;;;10.70;1.30;;;1.30;99.90;;;;;;5030787;28;20478;-76
2021/04/07 04:53:02;;;;;;;17.45;2.88;;;1.30;99.90;;;;;;5030711;28;20083;-76
2021/04/07 04:55:28;;;;;;;7.00;2.03;;;1.30;99.90;;;;;;5030144;28;20050;-75
2021/04/07 04:57:55;;;;;;;13.88;1.08;;;1.40;99.90;;;;;;5031129;28;20025;-75
2021/04/07 05:00:21;;;;;;;12.10;1.52;;;1.30;99.90;;;;;;5030947;28;20026;-75
2021/04/07 05:02:46;;;;;;;11.88;1.63;;;1.20;99.90;;;;;;5030844;28;20389;-75
2021/04/07 05:05:12;;;;;;;11.95;2.15;;;1.20;99.90;;;;;;5030310;28;20025;-76
2021/04/07 05:07:38;;;;;;;4.85;1.55;;;1.10;99.90;;;;;;5031030;28;20033;-75
2021/04/07 05:10:05;;;;;;;7.40;1.65;;;1.00;99.90;;;;;;5034453;28;20040;-76
2021/04/07 05:12:30;;;;;;;11.70;2.55;;;1.00;99.90;;;;;;5033045;28;20025;-76
2021/04/07 05:14:57;;;;;;;19.00;1.67;;;0.90;99.90;;;;;;5033878;28;20030;-76
2021/04/07 05:17:23;;;;;;;5.90;1.58;;;0.70;99.90;;;;;;5034545;28;20032;-76
2021/04/07 05:19:48;;;;;;;7.43;1.20;;;0.70;99.90;;;;;;5034314;28;20116;-76
2021/04/07 05:22:14;;;;;;;12.80;1.70;;;0.70;99.90;;;;;;5034087;28;20486;-76
2021/04/07 05:24:39;;;;;;;11.93;2.15;;;0.70;99.90;;;;;;5033672;28;20430;-75
2021/04/07 05:27:05;;;;;;;14.25;1.70;;;0.70;99.90;;;;;;5034364;28;20036;-76
2021/04/07 05:29:31;;;;;;;20.15;2.00;;;0.70;99.90;;;;;;5034268;28;20079;-76
2021/04/07 05:31:56;;;;;;;9.73;1.17;;;0.70;99.90;;;;;;5033782;28;20025;-76
2021/04/07 05:34:22;;;;;;;12.65;1.45;;;0.80;99.90;;;;;;5033548;28;20029;-76
2021/04/07 05:36:48;;;;;;;12.25;1.80;;;0.90;99.90;;;;;;5033890;28;20028;-76
2021/04/07 05:39:13;;;;;;;6.88;1.60;;;1.10;99.90;;;;;;5033978;28;20026;-76
2021/04/07 05:41:39;;;;;;;10.73;1.85;;;1.40;99.90;;;;;;5034045;28;20018;-76
2021/04/07 05:44:04;;;;;;;7.95;1.50;;;1.50;99.90;;;;;;5033006;28;20073;-75
2021/04/07 05:46:30;;;;;;;11.13;2.58;;;1.60;99.90;;;;;;5034004;28;20056;-76
2021/04/07 05:48:56;;;;;;;11.05;1.60;;;1.70;99.90;;;;;;5033817;28;20038;-76
2021/04/07 05:51:21;;;;;;;6.07;1.10;;;1.80;99.90;;;;;;5033902;28;20033;-75
2021/04/07 05:53:47;;;;;;;7.63;1.15;;;1.80;99.90;;;;;;5032526;28;20036;-75
2021/04/07 05:56:12;;;;;;;12.80;1.83;;;1.90;99.90;;;;;;5033722;28;20032;-76
2021/04/07 05:58:38;;;;;;;17.73;1.45;;;1.90;99.90;;;;;;5033705;28;20100;-75
2021/04/07 06:01:03;;;;;;;13.35;1.45;;;1.90;99.90;;;;;;5033649;28;20018;-75
2021/04/07 06:03:29;;;;;;;9.65;1.58;;;1.90;99.90;;;;;;5033257;28;20061;-75
2021/04/07 06:05:54;;;;;;;14.55;1.63;;;1.90;99.90;;;;;;5032995;28;20026;-75
2021/04/07 06:08:20;;;;;;;11.25;1.25;;;2.00;99.90;;;;;;5033173;28;20033;-75
2021/04/07 06:10:48;;;;;;;6.38;1.75;;;2.10;99.90;;;;;;5033482;28;20026;-75
2021/04/07 06:13:16;;;;;;;6.60;1.23;;;2.30;99.90;;;;;;5032054;28;20025;-75
2021/04/07 06:15:42;;;;;;;7.47;1.10;;;2.50;99.90;;;;;;5032839;28;20124;-75
2021/04/07 06:18:10;;;;;;;4.78;0.95;;;2.50;99.90;;;;;;5033377;28;20517;-75
2021/04/07 06:20:42;;;;;;;12.80;1.63;;;2.70;99.90;;;;;;5032248;28;20021;-75
2021/04/07 06:23:08;;;;;;;10.43;1.15;;;2.90;99.90;;;;;;5033103;28;20032;-75
2021/04/07 06:25:34;;;;;;;3.30;1.42;;;3.00;99.90;;;;;;5032602;28;20029;-75
2021/04/07 06:28:03;;;;;;;13.25;1.67;;;3.30;99.90;;;;;;5033232;28;20068;-75
2021/04/07 06:30:46;;;;;;;9.95;0.90;;;3.60;99.90;;;;;;5033061;28;20025;-75
2021/04/07 06:33:13;;;;;;;9.15;0.85;;;3.70;99.90;;;;;;5032783;28;20429;-76
2021/04/07 06:35:39;;;;;;;5.13;1.08;;;3.70;99.90;;;;;;5032273;28;20063;-75
2021/04/07 06:38:05;;;;;;;12.50;1.30;;;3.70;99.90;;;;;;5032706;28;20033;-75
2021/04/07 06:40:32;;;;;;;11.30;1.20;;;3.80;99.90;;;;;;5032945;28;20393;-75
2021/04/07 06:42:59;;;;;;;14.00;1.63;;;4.00;99.90;;;;;;5032636;28;20705;-75
2021/04/07 06:45:27;;;;;;;14.27;1.33;;;4.20;99.90;;;;;;5032195;28;20410;-76
2021/04/07 06:47:53;;;;;;;7.35;0.98;;;4.30;99.90;;;;;;5032744;28;20124;-76
2021/04/07 06:50:20;;;;;;;7.78;1.75;;;4.40;99.90;;;;;;5031486;28;20029;-75
2021/04/07 06:52:47;;;;;;;9.05;1.77;;;4.30;99.90;;;;;;5032424;28;20040;-75
2021/04/07 06:55:15;;;;;;;11.85;1.92;;;4.00;99.90;;;;;;5031935;28;20124;-75
2021/04/07 06:57:41;;;;;;;7.60;1.42;;;3.80;99.90;;;;;;5031349;28;20017;-75
2021/04/07 07:00:07;;;;;;;5.95;1.20;;;3.60;99.90;;;;;;5032440;28;20109;-75
2021/04/07 07:02:34;;;;;;;12.48;1.67;;;3.50;99.90;;;;;;5030095;28;20558;-75
2021/04/07 07:05:01;;;;;;;9.30;1.05;;;3.40;99.90;;;;;;5031360;28;20028;-75
2021/04/07 07:07:26;;;;;;;13.50;2.72;;;3.30;99.90;;;;;;5031857;28;20048;-75
2021/04/07 07:09:53;;;;;;;3.22;1.15;;;3.30;99.90;;;;;;5032196;28;20029;-75
2021/04/07 07:12:20;;;;;;;8.55;0.88;;;3.40;99.90;;;;;;5031829;28;20485;-76
2021/04/07 07:14:47;;;;;;;6.45;1.35;;;3.60;99.90;;;;;;5031579;28;20034;-75
2021/04/07 07:17:13;;;;;;;9.43;1.40;;;3.70;99.90;;;;;;5032043;28;20057;-75
2021/04/07 07:19:47;;;;;;;12.45;1.55;;;3.90;99.90;;;;;;5031926;28;20032;-75
2021/04/07 07:22:21;;;;;;;12.10;1.42;;;4.10;99.90;;;;;;5031402;28;20068;-75
2021/04/07 07:24:51;;;;;;;7.85;1.13;;;4.30;99.90;;;;;;5030223;28;20029;-76
2021/04/07 07:27:16;;;;;;;7.28;1.10;;;4.50;99.90;;;;;;5032311;28;20485;-75
2021/04/07 07:29:42;;;;;;;7.38;1.52;;;4.60;99.90;;;;;;5031720;28;20101;-76
2021/04/07 07:32:11;;;;;;;6.35;1.23;;;4.70;99.90;;;;;;5030125;28;20037;-75
2021/04/07 07:34:37;;;;;;;9.98;1.60;;;4.80;99.90;;;;;;5031208;28;20532;-76
2021/04/07 07:37:05;;;;;;;10.52;1.70;;;5.00;99.90;;;;;;5031233;28;20032;-75
2021/04/07 07:39:35;;;;;;;23.33;2.28;;;5.10;99.90;;;;;;5031706;28;20074;-76
2021/04/07 07:42:04;;;;;;;8.93;2.28;;;5.30;99.90;;;;;;5031740;28;20018;-76
2021/04/07 07:44:34;;;;;;;9.60;1.75;;;5.40;99.90;;;;;;5031159;28;20029;-75
2021/04/07 07:47:07;;;;;;;5.00;1.20;;;5.70;99.90;;;;;;5030536;28;20030;-75
2021/04/07 07:49:33;;;;;;;4.43;0.90;;;6.00;99.90;;;;;;5031745;28;20539;-75
2021/04/07 07:51:58;;;;;;;10.98;1.42;;;6.20;99.90;;;;;;5031205;28;20111;-75
2021/04/07 07:54:25;;;;;;;11.80;2.20;;;6.30;99.90;;;;;;5031078;28;20394;-75
2021/04/07 07:56:52;;;;;;;8.30;1.33;;;6.30;99.90;;;;;;5031451;28;20033;-75
2021/04/07 07:59:33;;;;;;;6.20;1.55;;;6.20;99.90;;;;;;5031461;28;20029;-75
2021/04/07 08:01:59;;;;;;;6.88;1.52;;;6.20;99.90;;;;;;5030933;28;20041;-75
2021/04/07 08:04:25;;;;;;;8.88;1.30;;;6.10;99.90;;;;;;5029132;28;20029;-75
2021/04/07 08:06:51;;;;;;;10.05;1.52;;;6.10;99.90;;;;;;5030390;28;20018;-75
2021/04/07 08:09:16;;;;;;;10.52;1.27;;;6.00;99.90;;;;;;5031236;28;20083;-76
2021/04/07 08:11:45;;;;;;;9.38;1.10;;;6.20;99.90;;;;;;5028525;28;20081;-75
2021/04/07 08:14:14;;;;;;;11.52;1.38;;;6.30;99.90;;;;;;5019624;28;20041;-75
2021/04/07 08:16:40;;;;;;;10.80;1.10;;;6.40;99.90;;;;;;5011395;28;20033;-76
2021/04/07 08:19:06;;;;;;;12.30;1.70;;;6.30;99.90;;;;;;5009513;28;20026;-76
2021/04/07 08:21:34;;;;;;;13.27;1.70;;;6.20;99.90;;;;;;5012465;28;20056;-75
2021/04/07 08:24:04;;;;;;;8.55;1.55;;;6.20;99.90;;;;;;5030496;28;20120;-76
2021/04/07 08:26:32;;;;;;;14.02;1.80;;;6.20;99.90;;;;;;5031334;28;20025;-75
2021/04/07 08:28:57;;;;;;;14.75;1.92;;;6.10;99.90;;;;;;5028589;28;20021;-76
2021/04/07 08:31:25;;;;;;;9.82;1.40;;;6.10;99.90;;;;;;5029803;28;20108;-76
2021/04/07 08:33:52;;;;;;;10.57;1.92;;;6.20;99.90;;;;;;5029072;28;20045;-76
2021/04/07 08:36:23;;;;;;;6.45;1.30;;;6.30;99.90;;;;;;5030689;28;20120;-76
2021/04/07 08:39:03;;;;;;;12.32;1.48;;;6.20;99.90;;;;;;5029928;28;20025;-76
2021/04/07 08:41:29;;;;;;;13.45;2.05;;;5.90;99.90;;;;;;5031064;28;20057;-75
2021/04/07 08:43:55;;;;;;;12.73;1.50;;;5.50;99.90;;;;;;5033055;28;20056;-75
2021/04/07 08:46:28;;;;;;;13.45;1.52;;;5.30;99.90;;;;;;5034799;28;20022;-76
2021/04/07 08:48:55;;;;;;;18.15;1.73;;;5.20;99.90;;;;;;5034898;28;20104;-75
2021/04/07 08:51:24;;;;;;;5.75;1.60;;;5.00;99.90;;;;;;5034860;28;20051;-75
2021/04/07 08:53:55;;;;;;;14.73;2.00;;;4.90;99.90;;;;;;5034060;28;20033;-74
2021/04/07 08:56:30;;;;;;;11.40;1.90;;;5.00;99.90;;;;;;5022047;28;20065;-75
2021/04/07 08:59:00;;;;;;;7.15;1.80;;;5.30;99.90;;;;;;5014877;28;20029;-75
2021/04/07 09:01:34;;;;;;;18.35;2.20;;;5.30;99.90;;;;;;5014917;28;20026;-75
2021/04/07 09:04:07;;;;;;;10.00;1.67;;;5.20;99.90;;;;;;5014404;28;20033;-74
2021/04/07 09:06:33;;;;;;;11.77;1.27;;;4.80;99.90;;;;;;5013532;28;20498;-75
2021/04/07 09:09:01;;;;;;;10.60;1.85;;;4.60;99.90;;;;;;5033608;28;20030;-76
2021/04/07 09:11:29;;;;;;;18.65;2.05;;;4.90;99.90;;;;;;5034578;28;20026;-75
2021/04/07 09:14:01;;;;;;;8.45;1.23;;;5.20;99.90;;;;;;5033643;28;20560;-76
2021/04/07 09:16:35;;;;;;;16.48;2.05;;;5.70;99.90;;;;;;5034577;28;20026;-75
2021/04/07 09:19:21;;;;;;;11.93;1.83;;;5.80;99.90;;;;;;5033871;28;20026;-75
2021/04/07 09:21:53;;;;;;;15.45;1.83;;;5.60;99.90;;;;;;5033171;28;20072;-74
2021/04/07 09:24:20;;;;;;;19.20;1.70;;;5.50;99.90;;;;;;5033274;28;20029;-74
2021/04/07 09:26:47;;;;;;;8.63;1.35;;;5.30;99.90;;;;;;5033008;28;20083;-75
2021/04/07 09:29:13;;;;;;;15.15;2.55;;;5.30;99.90;;;;;;5033890;28;20029;-75
2021/04/07 09:31:40;;;;;;;27.00;2.85;;;5.20;99.90;;;;;;5032987;28;20025;-75
2021/04/07 09:34:05;;;;;;;17.50;3.10;;;5.00;99.90;;;;;;5033355;28;20180;-75
2021/04/07 09:36:33;;;;;;;27.15;4.32;;;5.00;99.90;;;;;;5034106;28;20112;-75
2021/04/07 09:39:03;;;;;;;21.98;3.42;;;5.10;99.90;;;;;;5033340;28;20029;-75
2021/04/07 09:41:32;;;;;;;13.05;2.58;;;5.40;99.90;;;;;;5032388;28;20053;-75
2021/04/07 09:43:59;;;;;;;28.77;4.60;;;5.80;99.90;;;;;;5033315;28;20033;-75
2021/04/07 09:46:25;;;;;;;46.38;4.88;;;6.30;99.90;;;;;;5033800;28;20033;-75
2021/04/07 09:48:56;;;;;;;37.30;5.03;;;6.40;99.90;;;;;;5033416;28;20033;-75
2021/04/07 09:51:42;;;;;;;47.90;6.63;;;7.00;99.90;;;;;;5025282;28;20037;-75
2021/04/07 09:54:10;;;;;;;43.63;5.88;;;7.30;99.90;;;;;;5024880;28;20040;-75
2021/04/07 09:56:53;;;;;;;50.88;6.28;;;7.30;99.90;;;;;;5019252;28;20137;-76
2021/04/07 09:59:30;;;;;;;47.10;6.15;;;7.10;99.90;;;;;;5027076;28;20076;-75
2021/04/07 10:01:56;;;;;;;41.17;5.55;;;6.90;99.90;;;;;;5019848;28;20096;-75
2021/04/07 10:04:26;;;;;;;38.38;5.00;;;6.70;99.90;;;;;;5022603;28;20125;-74
2021/04/07 10:06:52;;;;;;;26.85;4.38;;;6.90;99.90;;;;;;5018414;28;20079;-75
2021/04/07 10:09:25;;;;;;;34.22;6.72;;;6.50;99.90;;;;;;5027290;28;20025;-76
2021/04/07 10:11:51;;;;;;;49.63;5.28;;;6.50;99.90;;;;;;5016822;28;20061;-76
2021/04/07 10:14:16;;;;;;;45.55;5.82;;;6.70;99.90;;;;;;5018300;28;20041;-75
2021/04/07 10:16:42;;;;;;;35.67;5.38;;;7.00;99.90;;;;;;5028156;28;20031;-75
2021/04/07 10:19:10;;;;;;;45.75;5.53;;;7.50;99.90;;;;;;5019084;28;20026;-75
2021/04/07 10:21:40;;;;;;;23.88;5.65;;;7.20;99.90;;;;;;5026321;28;20021;-75
2021/04/07 10:24:07;;;;;;;31.95;4.38;;;6.80;99.90;;;;;;5023212;28;20061;-75
2021/04/07 10:26:40;;;;;;;31.05;4.88;;;6.50;99.90;;;;;;5009695;28;20429;-75
2021/04/07 10:29:06;;;;;;;24.15;3.78;;;6.80;99.90;;;;;;5013199;28;20040;-76
2021/04/07 10:31:31;;;;;;;37.90;4.60;;;6.70;99.90;;;;;;5027910;28;20037;-75
2021/04/07 10:34:09;;;;;;;23.50;3.85;;;7.00;99.90;;;;;;5008304;28;20026;-75
2021/04/07 10:36:39;;;;;;;31.23;3.80;;;7.30;99.90;;;;;;5019374;28;20022;-76
2021/04/07 10:39:16;;;;;;;28.95;3.10;;;7.40;99.90;;;;;;5021169;28;21667;-75
2021/04/07 10:41:47;;;;;;;31.10;3.65;;;7.50;99.90;;;;;;5010922;28;20529;-75
2021/04/07 10:44:30;;;;;;;43.47;5.57;;;7.90;99.90;;;;;;5011128;28;20513;-75
2021/04/07 10:46:57;;;;;;;38.22;4.53;;;7.90;99.90;;;;;;5021267;28;20116;-76
2021/04/07 10:49:24;;;;;;;31.13;5.45;;;7.60;99.90;;;;;;5021462;28;20034;-76
2021/04/07 10:52:03;;;;;;;30.02;4.18;;;7.60;99.90;;;;;;5022704;28;20036;-76
2021/04/07 10:54:29;;;;;;;16.92;3.95;;;7.80;99.90;;;;;;5009694;28;20036;-76
2021/04/07 10:57:03;;;;;;;28.02;4.45;;;7.60;99.90;;;;;;5014875;28;20026;-76
2021/04/07 10:59:33;;;;;;;32.35;4.47;;;7.50;99.90;;;;;;5023866;28;20037;-76
2021/04/07 11:02:12;;;;;;;49.55;5.90;;;7.50;99.90;;;;;;5014243;28;20034;-75
2021/04/07 11:04:37;;;;;;;28.40;4.00;;;7.90;99.90;;;;;;5018306;28;20557;-75
2021/04/07 11:07:04;;;;;;;23.77;5.15;;;7.80;99.90;;;;;;5017843;28;20026;-75
2021/04/07 11:09:39;;;;;;;20.23;4.78;;;7.80;99.90;;;;;;5019625;28;20482;-75
2021/04/07 11:12:05;;;;;;;27.38;3.95;;;8.10;99.90;;;;;;5016913;28;20442;-74
2021/04/07 11:14:31;;;;;;;29.40;4.05;;;8.10;99.90;;;;;;5019305;28;20053;-75
2021/04/07 11:16:59;;;;;;;19.85;3.33;;;8.30;99.90;;;;;;5025190;28;20565;-75
2021/04/07 11:19:33;;;;;;;23.45;3.78;;;8.50;99.90;;;;;;5025476;28;20104;-76
2021/04/07 11:21:59;;;;;;;30.45;4.07;;;8.50;99.90;;;;;;5018189;28;20496;-75
2021/04/07 11:24:24;;;;;;;20.50;3.60;;;8.50;99.90;;;;;;5020183;28;20037;-77
2021/04/07 11:26:53;;;;;;;36.35;4.00;;;8.70;99.90;;;;;;5022570;28;20117;-77
2021/04/07 11:29:18;;;;;;;18.08;3.22;;;9.00;99.90;;;;;;5027216;28;20038;-77
2021/04/07 11:31:46;;;;;;;13.77;2.55;;;8.70;99.90;;;;;;5018572;28;20426;-77
2021/04/07 11:34:13;;;;;;;16.63;2.42;;;8.30;99.90;;;;;;5019087;28;20029;-76
2021/04/07 11:37:06;;;;;;;9.82;1.48;;;8.60;99.90;;;;;;5016361;28;20084;-77
2021/04/07 11:39:40;;;;;;;10.98;2.22;;;9.10;99.90;;;;;;5024252;28;20060;-77
2021/04/07 11:44:34;;;;;;;17.40;3.25;;;8.90;99.90;;;;;;5016679;28;20439;-76
2021/04/07 11:47:04;;;;;;;27.70;3.17;;;8.80;99.90;;;;;;5014970;28;20045;-77
2021/04/07 11:49:31;;;;;;;21.17;2.83;;;8.70;99.90;;;;;;5014968;28;20037;-76
2021/04/07 11:51:56;;;;;;;13.95;3.08;;;8.40;99.90;;;;;;5018560;28;20457;-77
2021/04/07 11:54:22;;;;;;;17.75;3.13;;;8.00;99.90;;;;;;5011343;28;20037;-77
2021/04/07 11:56:48;;;;;;;16.23;2.20;;;7.80;99.90;;;;;;5015840;28;20056;-78
2021/04/07 11:59:16;;;;;;;27.35;3.67;;;7.90;99.90;;;;;;5015418;28;20034;-78
2021/04/07 12:01:47;;;;;;;17.80;2.42;;;8.50;99.90;;;;;;5019452;28;20034;-78
2021/04/07 12:04:12;;;;;;;19.67;2.65;;;8.30;99.90;;;;;;5023953;28;20025;-78
2021/04/07 12:06:38;;;;;;;17.33;2.75;;;7.90;99.90;;;;;;5015336;28;20083;-78
2021/04/07 12:09:05;;;;;;;15.05;2.28;;;7.90;99.90;;;;;;5016207;28;20038;-78
2021/04/07 12:11:31;;;;;;;12.88;2.03;;;8.30;99.90;;;;;;5022981;28;20041;-78
2021/04/07 12:13:57;;;;;;;9.68;1.63;;;8.80;99.90;;;;;;5016460;28;20064;-78
2021/04/07 12:16:23;;;;;;;9.73;1.77;;;8.40;99.90;;;;;;5017102;28;20060;-78
2021/04/07 12:18:48;;;;;;;10.48;1.67;;;8.00;99.90;;;;;;5023835;28;20041;-78
2021/04/07 12:21:15;;;;;;;18.23;2.35;;;7.60;99.90;;;;;;5029352;28;20028;-78
2021/04/07 12:23:42;;;;;;;13.35;2.13;;;8.20;99.90;;;;;;5027877;28;20025;-78
2021/04/07 12:26:07;;;;;;;19.25;2.38;;;8.60;99.90;;;;;;5029975;28;20053;-78
2021/04/07 12:28:34;;;;;;;20.42;2.15;;;8.80;99.90;;;;;;5022540;28;20076;-77
2021/04/07 12:31:00;;;;;;;12.82;2.40;;;8.00;99.90;;;;;;5021031;28;20061;-78
2021/04/07 12:33:28;;;;;;;15.32;1.98;;;7.90;99.90;;;;;;5028581;28;20116;-78
2021/04/07 12:35:54;;;;;;;8.48;1.88;;;7.90;99.90;;;;;;5012050;28;20156;-78
2021/04/07 12:38:20;;;;;;;14.45;2.17;;;7.80;99.90;;;;;;5018976;28;20067;-78
2021/04/07 12:40:50;;;;;;;11.50;2.10;;;7.80;99.90;;;;;;5029638;28;20104;-78
2021/04/07 12:43:16;;;;;;;17.15;2.72;;;7.90;99.90;;;;;;5021438;28;20022;-78
2021/04/07 12:45:42;;;;;;;16.33;3.25;;;8.00;99.90;;;;;;5022074;28;20037;-78
2021/04/07 12:48:08;;;;;;;19.63;2.92;;;7.60;99.90;;;;;;5020072;28;20109;-78
2021/04/07 12:50:35;;;;;;;22.35;2.58;;;7.90;99.90;;;;;;5023466;28;20048;-78
2021/04/07 12:53:02;;;;;;;20.23;3.15;;;7.80;99.90;;;;;;5013584;28;20022;-78